sensor_id;sensor_type;location;lat;lon;timestamp;P1;durP1;ratioP1;P2;durP2;ratioP2
61572;SDS011;47465;43.094;12.434;2022-11-15T00:01:29;65.60;;;29.73;;
61572;SDS011;47465;43.094;12.434;2022-11-15T00:04:00;59.60;;;27.80;;
61572;SDS011;47465;43.094;12.434;2022-11-15T00:06:26;57.80;;;25.02;;
61572;SDS011;47465;43.094;12.434;2022-11-15T00:08:52;54.67;;;23.85;;
61572;SDS011;47465;43.094;12.434;2022-11-15T00:11:18;51.47;;;23.02;;
61572;SDS011;47465;43.094;12.434;2022-11-15T00:13:44;51.92;;;24.38;;
61572;SDS011;47465;43.094;12.434;2022-11-15T00:16:10;59.97;;;26.58;;
61572;SDS011;47465;43.094;12.434;2022-11-15T00:18:37;60.08;;;28.33;;
61572;SDS011;47465;43.094;12.434;2022-11-15T00:21:05;60.08;;;25.67;;
61572;SDS011;47465;43.094;12.434;2022-11-15T00:25:58;71.60;;;24.35;;
61572;SDS011;47465;43.094;12.434;2022-11-15T00:28:25;62.42;;;24.25;;
61572;SDS011;47465;43.094;12.434;2022-11-15T00:30:51;80.40;;;24.02;;
61572;SDS011;47465;43.094;12.434;2022-11-15T00:33:17;69.97;;;22.02;;
61572;SDS011;47465;43.094;12.434;2022-11-15T00:35:43;64.70;;;21.38;;
61572;SDS011;47465;43.094;12.434;2022-11-15T00:38:11;60.95;;;21.40;;
61572;SDS011;47465;43.094;12.434;2022-11-15T00:40:37;67.45;;;24.40;;
61572;SDS011;47465;43.094;12.434;2022-11-15T00:43:04;87.68;;;26.38;;
61572;SDS011;47465;43.094;12.434;2022-11-15T00:45:31;115.20;;;28.73;;
61572;SDS011;47465;43.094;12.434;2022-11-15T00:47:57;128.02;;;29.67;;
61572;SDS011;47465;43.094;12.434;2022-11-15T00:50:23;110.15;;;28.60;;
61572;SDS011;47465;43.094;12.434;2022-11-15T00:52:51;67.03;;;26.55;;
61572;SDS011;47465;43.094;12.434;2022-11-15T00:55:21;82.88;;;26.25;;
61572;SDS011;47465;43.094;12.434;2022-11-15T00:57:47;65.20;;;26.52;;
61572;SDS011;47465;43.094;12.434;2022-11-15T01:00:13;54.80;;;26.13;;
61572;SDS011;47465;43.094;12.434;2022-11-15T01:02:40;68.20;;;26.77;;
61572;SDS011;47465;43.094;12.434;2022-11-15T01:05:06;143.70;;;28.35;;
61572;SDS011;47465;43.094;12.434;2022-11-15T01:07:33;152.43;;;27.48;;
61572;SDS011;47465;43.094;12.434;2022-11-15T01:09:59;170.25;;;27.52;;
61572;SDS011;47465;43.094;12.434;2022-11-15T01:12:27;138.13;;;27.30;;
61572;SDS011;47465;43.094;12.434;2022-11-15T01:14:53;105.28;;;26.83;;
61572;SDS011;47465;43.094;12.434;2022-11-15T01:17:19;83.43;;;25.42;;
61572;SDS011;47465;43.094;12.434;2022-11-15T01:19:45;56.20;;;23.90;;
61572;SDS011;47465;43.094;12.434;2022-11-15T01:22:11;53.13;;;21.67;;
61572;SDS011;47465;43.094;12.434;2022-11-15T01:24:37;50.45;;;19.27;;
61572;SDS011;47465;43.094;12.434;2022-11-15T01:27:03;51.35;;;20.30;;
61572;SDS011;47465;43.094;12.434;2022-11-15T01:29:32;45.08;;;21.20;;
61572;SDS011;47465;43.094;12.434;2022-11-15T01:32:02;49.00;;;18.55;;
61572;SDS011;47465;43.094;12.434;2022-11-15T01:34:29;42.42;;;17.52;;
61572;SDS011;47465;43.094;12.434;2022-11-15T01:36:55;50.28;;;16.98;;
61572;SDS011;47465;43.094;12.434;2022-11-15T01:39:21;43.38;;;17.70;;
61572;SDS011;47465;43.094;12.434;2022-11-15T01:41:47;52.80;;;18.75;;
61572;SDS011;47465;43.094;12.434;2022-11-15T01:47:10;43.75;;;17.88;;
61572;SDS011;47465;43.094;12.434;2022-11-15T01:49:41;64.05;;;17.70;;
61572;SDS011;47465;43.094;12.434;2022-11-15T01:52:16;45.25;;;17.10;;
61572;SDS011;47465;43.094;12.434;2022-11-15T01:54:44;47.88;;;17.92;;
61572;SDS011;47465;43.094;12.434;2022-11-15T01:57:12;46.10;;;18.70;;
61572;SDS011;47465;43.094;12.434;2022-11-15T01:59:41;39.33;;;17.02;;
61572;SDS011;47465;43.094;12.434;2022-11-15T02:02:09;44.67;;;16.65;;
61572;SDS011;47465;43.094;12.434;2022-11-15T02:04:36;43.08;;;18.80;;
61572;SDS011;47465;43.094;12.434;2022-11-15T02:07:05;46.40;;;17.90;;
61572;SDS011;47465;43.094;12.434;2022-11-15T02:09:35;45.13;;;17.23;;
61572;SDS011;47465;43.094;12.434;2022-11-15T02:12:01;46.47;;;18.80;;
61572;SDS011;47465;43.094;12.434;2022-11-15T02:14:28;45.17;;;19.70;;
61572;SDS011;47465;43.094;12.434;2022-11-15T02:16:59;40.70;;;17.70;;
61572;SDS011;47465;43.094;12.434;2022-11-15T02:19:40;41.88;;;17.33;;
61572;SDS011;47465;43.094;12.434;2022-11-15T02:22:29;40.25;;;16.63;;
61572;SDS011;47465;43.094;12.434;2022-11-15T02:25:14;41.60;;;17.98;;
61572;SDS011;47465;43.094;12.434;2022-11-15T02:28:06;50.15;;;17.30;;
61572;SDS011;47465;43.094;12.434;2022-11-15T02:30:48;40.80;;;15.70;;
61572;SDS011;47465;43.094;12.434;2022-11-15T02:33:23;39.50;;;15.90;;
61572;SDS011;47465;43.094;12.434;2022-11-15T02:38:28;35.25;;;14.82;;
61572;SDS011;47465;43.094;12.434;2022-11-15T02:41:01;32.35;;;14.98;;
61572;SDS011;47465;43.094;12.434;2022-11-15T02:43:32;31.10;;;13.70;;
61572;SDS011;47465;43.094;12.434;2022-11-15T02:46:49;35.42;;;13.73;;
61572;SDS011;47465;43.094;12.434;2022-11-15T02:50:04;41.60;;;15.27;;
61572;SDS011;47465;43.094;12.434;2022-11-15T02:52:34;38.45;;;16.17;;
61572;SDS011;47465;43.094;12.434;2022-11-15T02:55:00;36.13;;;14.55;;
61572;SDS011;47465;43.094;12.434;2022-11-15T02:57:30;44.08;;;16.48;;
61572;SDS011;47465;43.094;12.434;2022-11-15T03:00:05;36.53;;;16.27;;
61572;SDS011;47465;43.094;12.434;2022-11-15T03:02:40;38.80;;;16.50;;
61572;SDS011;47465;43.094;12.434;2022-11-15T03:05:17;40.65;;;17.15;;
61572;SDS011;47465;43.094;12.434;2022-11-15T03:07:50;35.33;;;15.57;;
61572;SDS011;47465;43.094;12.434;2022-11-15T03:10:23;39.60;;;16.25;;
61572;SDS011;47465;43.094;12.434;2022-11-15T03:12:56;33.28;;;15.98;;
61572;SDS011;47465;43.094;12.434;2022-11-15T03:15:26;41.75;;;15.88;;
61572;SDS011;47465;43.094;12.434;2022-11-15T03:17:55;35.40;;;14.35;;
61572;SDS011;47465;43.094;12.434;2022-11-15T03:20:28;36.15;;;14.82;;
61572;SDS011;47465;43.094;12.434;2022-11-15T03:22:56;36.42;;;14.23;;
61572;SDS011;47465;43.094;12.434;2022-11-15T03:25:27;37.75;;;14.13;;
61572;SDS011;47465;43.094;12.434;2022-11-15T03:27:57;37.45;;;12.55;;
61572;SDS011;47465;43.094;12.434;2022-11-15T03:30:28;34.17;;;12.07;;
61572;SDS011;47465;43.094;12.434;2022-11-15T03:32:57;28.88;;;12.00;;
61572;SDS011;47465;43.094;12.434;2022-11-15T03:35:26;41.30;;;13.25;;
61572;SDS011;47465;43.094;12.434;2022-11-15T03:37:59;31.85;;;12.98;;
61572;SDS011;47465;43.094;12.434;2022-11-15T03:40:36;36.10;;;13.05;;
61572;SDS011;47465;43.094;12.434;2022-11-15T03:43:06;34.25;;;13.43;;
61572;SDS011;47465;43.094;12.434;2022-11-15T03:45:39;40.72;;;12.50;;
61572;SDS011;47465;43.094;12.434;2022-11-15T03:48:10;35.55;;;12.65;;
61572;SDS011;47465;43.094;12.434;2022-11-15T03:50:40;36.33;;;13.15;;
61572;SDS011;47465;43.094;12.434;2022-11-15T03:53:10;31.52;;;12.48;;
61572;SDS011;47465;43.094;12.434;2022-11-15T03:55:38;33.20;;;13.98;;
61572;SDS011;47465;43.094;12.434;2022-11-15T03:58:04;62.25;;;16.45;;
61572;SDS011;47465;43.094;12.434;2022-11-15T04:00:30;34.47;;;15.65;;
61572;SDS011;47465;43.094;12.434;2022-11-15T04:02:57;57.97;;;17.33;;
61572;SDS011;47465;43.094;12.434;2022-11-15T04:05:23;69.65;;;16.25;;
61572;SDS011;47465;43.094;12.434;2022-11-15T04:07:51;38.97;;;14.52;;
61572;SDS011;47465;43.094;12.434;2022-11-15T04:10:17;37.13;;;13.70;;
61572;SDS011;47465;43.094;12.434;2022-11-15T04:12:44;46.38;;;14.30;;
61572;SDS011;47465;43.094;12.434;2022-11-15T04:15:13;66.03;;;14.55;;
61572;SDS011;47465;43.094;12.434;2022-11-15T04:17:41;31.40;;;13.60;;
61572;SDS011;47465;43.094;12.434;2022-11-15T04:20:10;34.90;;;13.32;;
61572;SDS011;47465;43.094;12.434;2022-11-15T04:33:36;28.60;;;12.27;;
61572;SDS011;47465;43.094;12.434;2022-11-15T04:36:02;32.17;;;12.95;;
61572;SDS011;47465;43.094;12.434;2022-11-15T04:39:06;25.98;;;12.50;;
61572;SDS011;47465;43.094;12.434;2022-11-15T04:41:33;32.42;;;12.80;;
61572;SDS011;47465;43.094;12.434;2022-11-15T04:44:00;27.63;;;12.07;;
61572;SDS011;47465;43.094;12.434;2022-11-15T04:46:27;61.97;;;16.40;;
61572;SDS011;47465;43.094;12.434;2022-11-15T04:48:53;61.90;;;16.88;;
61572;SDS011;47465;43.094;12.434;2022-11-15T04:51:19;48.83;;;13.90;;
61572;SDS011;47465;43.094;12.434;2022-11-15T04:53:46;32.45;;;11.73;;
61572;SDS011;47465;43.094;12.434;2022-11-15T04:56:13;87.47;;;18.65;;
61572;SDS011;47465;43.094;12.434;2022-11-15T04:58:39;69.43;;;15.95;;
61572;SDS011;47465;43.094;12.434;2022-11-15T05:01:06;30.42;;;13.52;;
61572;SDS011;47465;43.094;12.434;2022-11-15T05:03:33;25.30;;;10.75;;
61572;SDS011;47465;43.094;12.434;2022-11-15T05:16:59;25.02;;;10.07;;
61572;SDS011;47465;43.094;12.434;2022-11-15T05:19:26;21.77;;;9.60;;
61572;SDS011;47465;43.094;12.434;2022-11-15T05:29:32;30.77;;;11.73;;
61572;SDS011;47465;43.094;12.434;2022-11-15T05:32:00;26.45;;;10.43;;
61572;SDS011;47465;43.094;12.434;2022-11-15T05:34:31;19.95;;;9.73;;
61572;SDS011;47465;43.094;12.434;2022-11-15T05:36:58;20.92;;;9.75;;
61572;SDS011;47465;43.094;12.434;2022-11-15T05:39:25;18.67;;;8.05;;
61572;SDS011;47465;43.094;12.434;2022-11-15T05:41:52;18.98;;;8.55;;
61572;SDS011;47465;43.094;12.434;2022-11-15T05:44:24;17.05;;;7.85;;
61572;SDS011;47465;43.094;12.434;2022-11-15T05:46:51;16.40;;;7.13;;
61572;SDS011;47465;43.094;12.434;2022-11-15T05:49:21;17.73;;;7.80;;
61572;SDS011;47465;43.094;12.434;2022-11-15T05:51:50;18.30;;;8.48;;
61572;SDS011;47465;43.094;12.434;2022-11-15T05:54:18;14.90;;;8.27;;
61572;SDS011;47465;43.094;12.434;2022-11-15T05:56:47;16.95;;;7.47;;
61572;SDS011;47465;43.094;12.434;2022-11-15T05:59:15;15.70;;;7.35;;
61572;SDS011;47465;43.094;12.434;2022-11-15T06:01:41;15.25;;;7.43;;
61572;SDS011;47465;43.094;12.434;2022-11-15T06:04:10;13.43;;;6.32;;
61572;SDS011;47465;43.094;12.434;2022-11-15T06:06:38;13.27;;;6.43;;
61572;SDS011;47465;43.094;12.434;2022-11-15T06:09:04;12.07;;;6.43;;
61572;SDS011;47465;43.094;12.434;2022-11-15T06:11:30;16.42;;;6.28;;
61572;SDS011;47465;43.094;12.434;2022-11-15T06:13:56;14.65;;;7.05;;
61572;SDS011;47465;43.094;12.434;2022-11-15T06:16:24;17.77;;;6.82;;
61572;SDS011;47465;43.094;12.434;2022-11-15T06:18:50;14.85;;;6.63;;
61572;SDS011;47465;43.094;12.434;2022-11-15T06:21:20;15.30;;;6.90;;
61572;SDS011;47465;43.094;12.434;2022-11-15T06:23:48;14.32;;;7.10;;
61572;SDS011;47465;43.094;12.434;2022-11-15T06:26:14;13.25;;;6.55;;
61572;SDS011;47465;43.094;12.434;2022-11-15T06:28:40;15.85;;;7.50;;
61572;SDS011;47465;43.094;12.434;2022-11-15T06:31:07;16.27;;;7.30;;
61572;SDS011;47465;43.094;12.434;2022-11-15T06:33:36;12.90;;;6.43;;
61572;SDS011;47465;43.094;12.434;2022-11-15T06:36:02;12.70;;;6.82;;
61572;SDS011;47465;43.094;12.434;2022-11-15T06:38:29;16.83;;;7.07;;
61572;SDS011;47465;43.094;12.434;2022-11-15T06:41:02;15.95;;;7.28;;
61572;SDS011;47465;43.094;12.434;2022-11-15T06:43:29;14.35;;;6.97;;
61572;SDS011;47465;43.094;12.434;2022-11-15T06:45:55;16.35;;;7.55;;
61572;SDS011;47465;43.094;12.434;2022-11-15T06:48:22;15.35;;;7.50;;
61572;SDS011;47465;43.094;12.434;2022-11-15T06:50:50;15.88;;;7.72;;
61572;SDS011;47465;43.094;12.434;2022-11-15T06:53:17;17.00;;;7.90;;
61572;SDS011;47465;43.094;12.434;2022-11-15T06:55:43;15.88;;;7.50;;
61572;SDS011;47465;43.094;12.434;2022-11-15T06:58:11;19.10;;;8.40;;
61572;SDS011;47465;43.094;12.434;2022-11-15T07:00:37;23.80;;;9.48;;
61572;SDS011;47465;43.094;12.434;2022-11-15T07:03:03;18.52;;;8.80;;
61572;SDS011;47465;43.094;12.434;2022-11-15T07:05:29;20.50;;;7.40;;
61572;SDS011;47465;43.094;12.434;2022-11-15T07:07:56;18.15;;;7.93;;
61572;SDS011;47465;43.094;12.434;2022-11-15T07:10:25;14.40;;;7.60;;
61572;SDS011;47465;43.094;12.434;2022-11-15T07:17:49;39.83;;;20.92;;
61572;SDS011;47465;43.094;12.434;2022-11-15T07:20:16;19.13;;;8.38;;
61572;SDS011;47465;43.094;12.434;2022-11-15T07:22:42;14.75;;;7.97;;
61572;SDS011;47465;43.094;12.434;2022-11-15T07:25:10;15.38;;;8.70;;
61572;SDS011;47465;43.094;12.434;2022-11-15T07:27:37;14.27;;;8.15;;
61572;SDS011;47465;43.094;12.434;2022-11-15T07:30:03;12.25;;;7.28;;
61572;SDS011;47465;43.094;12.434;2022-11-15T07:32:32;15.07;;;6.53;;
61572;SDS011;47465;43.094;12.434;2022-11-15T07:34:59;14.88;;;6.72;;
61572;SDS011;47465;43.094;12.434;2022-11-15T07:37:25;18.00;;;9.23;;
61572;SDS011;47465;43.094;12.434;2022-11-15T07:39:53;17.33;;;8.65;;
61572;SDS011;47465;43.094;12.434;2022-11-15T07:42:20;13.30;;;7.67;;
61572;SDS011;47465;43.094;12.434;2022-11-15T07:45:22;17.83;;;9.00;;
61572;SDS011;47465;43.094;12.434;2022-11-15T07:47:51;16.38;;;7.45;;
61572;SDS011;47465;43.094;12.434;2022-11-15T07:50:17;13.35;;;7.22;;
61572;SDS011;47465;43.094;12.434;2022-11-15T07:52:44;259.45;;;106.43;;
61572;SDS011;47465;43.094;12.434;2022-11-15T07:55:13;53.20;;;22.85;;
61572;SDS011;47465;43.094;12.434;2022-11-15T07:57:39;32.92;;;15.55;;
61572;SDS011;47465;43.094;12.434;2022-11-15T08:00:08;121.45;;;51.22;;
61572;SDS011;47465;43.094;12.434;2022-11-15T08:02:36;19.48;;;8.77;;
61572;SDS011;47465;43.094;12.434;2022-11-15T08:05:02;12.13;;;6.25;;
61572;SDS011;47465;43.094;12.434;2022-11-15T08:07:29;17.20;;;9.27;;
61572;SDS011;47465;43.094;12.434;2022-11-15T08:09:55;10.85;;;6.07;;
61572;SDS011;47465;43.094;12.434;2022-11-15T08:12:26;11.10;;;5.65;;
61572;SDS011;47465;43.094;12.434;2022-11-15T08:14:52;11.32;;;6.55;;
61572;SDS011;47465;43.094;12.434;2022-11-15T08:17:18;11.88;;;6.60;;
61572;SDS011;47465;43.094;12.434;2022-11-15T08:19:53;10.70;;;5.60;;
61572;SDS011;47465;43.094;12.434;2022-11-15T08:22:23;10.75;;;5.43;;
61572;SDS011;47465;43.094;12.434;2022-11-15T08:24:49;12.02;;;6.55;;
61572;SDS011;47465;43.094;12.434;2022-11-15T08:27:30;57.40;;;22.92;;
61572;SDS011;47465;43.094;12.434;2022-11-15T08:30:08;16.70;;;8.25;;
61572;SDS011;47465;43.094;12.434;2022-11-15T08:32:37;15.68;;;8.70;;
61572;SDS011;47465;43.094;12.434;2022-11-15T08:35:07;16.08;;;7.15;;
61572;SDS011;47465;43.094;12.434;2022-11-15T08:37:39;14.25;;;7.50;;
61572;SDS011;47465;43.094;12.434;2022-11-15T08:40:09;14.80;;;7.55;;
61572;SDS011;47465;43.094;12.434;2022-11-15T08:42:45;12.25;;;7.00;;
61572;SDS011;47465;43.094;12.434;2022-11-15T08:45:11;12.10;;;7.13;;
61572;SDS011;47465;43.094;12.434;2022-11-15T08:47:39;14.57;;;7.28;;
61572;SDS011;47465;43.094;12.434;2022-11-15T08:50:09;17.40;;;8.20;;
61572;SDS011;47465;43.094;12.434;2022-11-15T08:52:38;14.10;;;7.72;;
61572;SDS011;47465;43.094;12.434;2022-11-15T08:55:07;16.67;;;8.18;;
61572;SDS011;47465;43.094;12.434;2022-11-15T08:57:34;20.60;;;9.32;;
61572;SDS011;47465;43.094;12.434;2022-11-15T09:00:13;15.67;;;8.30;;
61572;SDS011;47465;43.094;12.434;2022-11-15T09:02:41;18.27;;;8.63;;
61572;SDS011;47465;43.094;12.434;2022-11-15T09:05:12;20.13;;;8.88;;
61572;SDS011;47465;43.094;12.434;2022-11-15T09:07:41;18.20;;;9.38;;
61572;SDS011;47465;43.094;12.434;2022-11-15T09:10:08;17.40;;;9.30;;
61572;SDS011;47465;43.094;12.434;2022-11-15T09:12:34;24.02;;;12.65;;
61572;SDS011;47465;43.094;12.434;2022-11-15T09:15:04;21.42;;;9.45;;
61572;SDS011;47465;43.094;12.434;2022-11-15T09:17:31;21.23;;;9.60;;
61572;SDS011;47465;43.094;12.434;2022-11-15T09:19:57;19.15;;;9.82;;
61572;SDS011;47465;43.094;12.434;2022-11-15T09:22:27;18.75;;;9.30;;
61572;SDS011;47465;43.094;12.434;2022-11-15T09:24:54;19.13;;;9.93;;
61572;SDS011;47465;43.094;12.434;2022-11-15T09:27:20;20.58;;;10.13;;
61572;SDS011;47465;43.094;12.434;2022-11-15T09:29:46;20.13;;;10.30;;
61572;SDS011;47465;43.094;12.434;2022-11-15T09:32:12;15.95;;;8.38;;
61572;SDS011;47465;43.094;12.434;2022-11-15T09:34:38;18.63;;;9.27;;
61572;SDS011;47465;43.094;12.434;2022-11-15T09:37:07;23.70;;;11.65;;
61572;SDS011;47465;43.094;12.434;2022-11-15T09:39:35;15.82;;;8.40;;
61572;SDS011;47465;43.094;12.434;2022-11-15T09:45:08;16.80;;;8.88;;
61572;SDS011;47465;43.094;12.434;2022-11-15T09:50:36;17.15;;;8.38;;
61572;SDS011;47465;43.094;12.434;2022-11-15T09:53:21;14.65;;;7.50;;
61572;SDS011;47465;43.094;12.434;2022-11-15T09:56:12;20.30;;;8.50;;
61572;SDS011;47465;43.094;12.434;2022-11-15T09:58:46;12.88;;;7.30;;
61572;SDS011;47465;43.094;12.434;2022-11-15T10:01:25;13.40;;;6.88;;
61572;SDS011;47465;43.094;12.434;2022-11-15T10:04:06;14.55;;;7.70;;
61572;SDS011;47465;43.094;12.434;2022-11-15T10:06:54;15.38;;;8.35;;
61572;SDS011;47465;43.094;12.434;2022-11-15T10:09:29;18.80;;;9.63;;
61572;SDS011;47465;43.094;12.434;2022-11-15T10:12:04;16.25;;;8.55;;
61572;SDS011;47465;43.094;12.434;2022-11-15T10:14:33;15.60;;;7.95;;
61572;SDS011;47465;43.094;12.434;2022-11-15T10:20:10;13.77;;;7.50;;
61572;SDS011;47465;43.094;12.434;2022-11-15T10:22:44;15.00;;;7.90;;
61572;SDS011;47465;43.094;12.434;2022-11-15T10:25:16;13.55;;;7.18;;
61572;SDS011;47465;43.094;12.434;2022-11-15T10:27:50;13.82;;;7.05;;
61572;SDS011;47465;43.094;12.434;2022-11-15T10:30:19;13.75;;;6.93;;
61572;SDS011;47465;43.094;12.434;2022-11-15T10:32:46;16.30;;;7.80;;
61572;SDS011;47465;43.094;12.434;2022-11-15T10:35:17;14.60;;;7.07;;
61572;SDS011;47465;43.094;12.434;2022-11-15T10:37:48;11.75;;;6.20;;
61572;SDS011;47465;43.094;12.434;2022-11-15T10:40:16;11.48;;;6.43;;
61572;SDS011;47465;43.094;12.434;2022-11-15T10:42:44;11.63;;;6.50;;
61572;SDS011;47465;43.094;12.434;2022-11-15T10:45:31;14.82;;;7.13;;
61572;SDS011;47465;43.094;12.434;2022-11-15T10:50:47;13.10;;;6.97;;
61572;SDS011;47465;43.094;12.434;2022-11-15T10:53:16;16.80;;;9.05;;
61572;SDS011;47465;43.094;12.434;2022-11-15T10:55:50;11.32;;;6.82;;
61572;SDS011;47465;43.094;12.434;2022-11-15T10:58:21;21.88;;;10.80;;
61572;SDS011;47465;43.094;12.434;2022-11-15T11:00:55;12.60;;;7.28;;
61572;SDS011;47465;43.094;12.434;2022-11-15T11:03:27;10.15;;;6.30;;
61572;SDS011;47465;43.094;12.434;2022-11-15T11:06:04;12.10;;;6.30;;
61572;SDS011;47465;43.094;12.434;2022-11-15T11:10:59;10.15;;;5.43;;
61572;SDS011;47465;43.094;12.434;2022-11-15T11:13:28;11.70;;;6.35;;
61572;SDS011;47465;43.094;12.434;2022-11-15T11:20:54;10.40;;;5.83;;
61572;SDS011;47465;43.094;12.434;2022-11-15T11:23:31;17.45;;;7.88;;
61572;SDS011;47465;43.094;12.434;2022-11-15T11:26:29;12.73;;;6.18;;
61572;SDS011;47465;43.094;12.434;2022-11-15T11:29:10;17.52;;;8.88;;
61572;SDS011;47465;43.094;12.434;2022-11-15T11:31:52;17.65;;;8.93;;
61572;SDS011;47465;43.094;12.434;2022-11-15T11:34:48;17.88;;;8.85;;
61572;SDS011;47465;43.094;12.434;2022-11-15T11:37:26;16.30;;;10.00;;
61572;SDS011;47465;43.094;12.434;2022-11-15T11:40:20;16.83;;;8.75;;
61572;SDS011;47465;43.094;12.434;2022-11-15T11:42:56;11.82;;;6.95;;
61572;SDS011;47465;43.094;12.434;2022-11-15T11:48:40;11.13;;;7.15;;
61572;SDS011;47465;43.094;12.434;2022-11-15T11:51:10;13.93;;;7.97;;
61572;SDS011;47465;43.094;12.434;2022-11-15T11:53:49;16.48;;;8.55;;
61572;SDS011;47465;43.094;12.434;2022-11-15T11:56:23;13.40;;;7.57;;
61572;SDS011;47465;43.094;12.434;2022-11-15T11:58:52;14.60;;;8.82;;
61572;SDS011;47465;43.094;12.434;2022-11-15T12:01:23;15.40;;;8.63;;
61572;SDS011;47465;43.094;12.434;2022-11-15T12:03:53;14.32;;;8.45;;
61572;SDS011;47465;43.094;12.434;2022-11-15T12:06:33;17.08;;;9.52;;
61572;SDS011;47465;43.094;12.434;2022-11-15T12:09:07;19.15;;;11.15;;
61572;SDS011;47465;43.094;12.434;2022-11-15T12:11:43;13.13;;;7.80;;
61572;SDS011;47465;43.094;12.434;2022-11-15T12:14:19;12.63;;;7.30;;
61572;SDS011;47465;43.094;12.434;2022-11-15T12:16:53;12.82;;;7.45;;
61572;SDS011;47465;43.094;12.434;2022-11-15T12:19:19;14.20;;;7.35;;
61572;SDS011;47465;43.094;12.434;2022-11-15T12:21:46;12.93;;;7.57;;
61572;SDS011;47465;43.094;12.434;2022-11-15T12:24:19;22.45;;;11.43;;
61572;SDS011;47465;43.094;12.434;2022-11-15T12:26:49;18.60;;;10.32;;
61572;SDS011;47465;43.094;12.434;2022-11-15T12:29:20;17.52;;;10.55;;
61572;SDS011;47465;43.094;12.434;2022-11-15T12:31:55;20.60;;;11.52;;
61572;SDS011;47465;43.094;12.434;2022-11-15T12:34:39;21.20;;;12.00;;
61572;SDS011;47465;43.094;12.434;2022-11-15T12:40:26;19.02;;;11.68;;
61572;SDS011;47465;43.094;12.434;2022-11-15T12:43:01;15.90;;;9.52;;
61572;SDS011;47465;43.094;12.434;2022-11-15T12:45:55;16.67;;;10.45;;
61572;SDS011;47465;43.094;12.434;2022-11-15T12:57:44;19.48;;;11.05;;
61572;SDS011;47465;43.094;12.434;2022-11-15T13:03:20;27.27;;;16.58;;
61572;SDS011;47465;43.094;12.434;2022-11-15T13:06:02;19.45;;;12.70;;
61572;SDS011;47465;43.094;12.434;2022-11-15T13:08:47;29.75;;;15.63;;
61572;SDS011;47465;43.094;12.434;2022-11-15T13:19:41;23.23;;;12.93;;
61572;SDS011;47465;43.094;12.434;2022-11-15T13:22:09;21.08;;;12.85;;
61572;SDS011;47465;43.094;12.434;2022-11-15T13:28:42;39.38;;;24.83;;
61572;SDS011;47465;43.094;12.434;2022-11-15T13:34:03;21.33;;;13.07;;
61572;SDS011;47465;43.094;12.434;2022-11-15T13:36:42;25.05;;;13.15;;
61572;SDS011;47465;43.094;12.434;2022-11-15T13:39:12;26.45;;;16.80;;
61572;SDS011;47465;43.094;12.434;2022-11-15T13:41:52;18.60;;;11.27;;
61572;SDS011;47465;43.094;12.434;2022-11-15T13:44:19;23.60;;;16.42;;
61572;SDS011;47465;43.094;12.434;2022-11-15T13:46:46;22.40;;;14.18;;
61572;SDS011;47465;43.094;12.434;2022-11-15T13:49:12;17.05;;;10.15;;
61572;SDS011;47465;43.094;12.434;2022-11-15T13:51:39;16.52;;;9.68;;
61572;SDS011;47465;43.094;12.434;2022-11-15T13:54:17;14.88;;;8.50;;
61572;SDS011;47465;43.094;12.434;2022-11-15T13:56:49;15.63;;;8.95;;
61572;SDS011;47465;43.094;12.434;2022-11-15T13:59:26;16.77;;;10.23;;
61572;SDS011;47465;43.094;12.434;2022-11-15T14:01:55;15.10;;;8.63;;
61572;SDS011;47465;43.094;12.434;2022-11-15T14:08:31;14.27;;;8.10;;
61572;SDS011;47465;43.094;12.434;2022-11-15T14:11:13;14.82;;;7.95;;
61572;SDS011;47465;43.094;12.434;2022-11-15T14:13:50;12.73;;;8.02;;
61572;SDS011;47465;43.094;12.434;2022-11-15T14:16:34;14.13;;;7.85;;
61572;SDS011;47465;43.094;12.434;2022-11-15T14:19:02;13.35;;;8.30;;
61572;SDS011;47465;43.094;12.434;2022-11-15T14:21:30;12.65;;;7.50;;
61572;SDS011;47465;43.094;12.434;2022-11-15T14:26:42;15.18;;;8.13;;
61572;SDS011;47465;43.094;12.434;2022-11-15T14:29:23;11.27;;;6.40;;
61572;SDS011;47465;43.094;12.434;2022-11-15T14:31:50;13.45;;;7.65;;
61572;SDS011;47465;43.094;12.434;2022-11-15T14:34:17;12.20;;;6.82;;
61572;SDS011;47465;43.094;12.434;2022-11-15T14:36:48;11.95;;;6.82;;
61572;SDS011;47465;43.094;12.434;2022-11-15T14:39:15;17.40;;;8.30;;
61572;SDS011;47465;43.094;12.434;2022-11-15T14:41:41;16.23;;;7.70;;
61572;SDS011;47465;43.094;12.434;2022-11-15T14:44:09;13.02;;;7.43;;
61572;SDS011;47465;43.094;12.434;2022-11-15T14:46:45;13.07;;;7.10;;
61572;SDS011;47465;43.094;12.434;2022-11-15T14:49:13;11.45;;;6.88;;
61572;SDS011;47465;43.094;12.434;2022-11-15T14:51:44;12.38;;;7.00;;
61572;SDS011;47465;43.094;12.434;2022-11-15T14:54:10;14.60;;;9.45;;
61572;SDS011;47465;43.094;12.434;2022-11-15T14:56:37;15.02;;;7.78;;
61572;SDS011;47465;43.094;12.434;2022-11-15T15:00:35;14.98;;;9.63;;
61572;SDS011;47465;43.094;12.434;2022-11-15T15:02:29;14.35;;;8.30;;
61572;SDS011;47465;43.094;12.434;2022-11-15T15:05:25;16.65;;;8.43;;
61572;SDS011;47465;43.094;12.434;2022-11-15T15:07:55;15.57;;;8.32;;
61572;SDS011;47465;43.094;12.434;2022-11-15T15:10:22;15.98;;;9.07;;
61572;SDS011;47465;43.094;12.434;2022-11-15T15:12:52;16.15;;;8.98;;
61572;SDS011;47465;43.094;12.434;2022-11-15T15:15:20;23.85;;;15.05;;
61572;SDS011;47465;43.094;12.434;2022-11-15T15:17:51;15.25;;;9.27;;
61572;SDS011;47465;43.094;12.434;2022-11-15T15:20:20;16.13;;;9.98;;
61572;SDS011;47465;43.094;12.434;2022-11-15T15:23:09;19.55;;;11.70;;
61572;SDS011;47465;43.094;12.434;2022-11-15T15:25:40;27.05;;;16.25;;
61572;SDS011;47465;43.094;12.434;2022-11-15T15:28:07;19.88;;;11.27;;
61572;SDS011;47465;43.094;12.434;2022-11-15T15:30:33;18.75;;;11.27;;
61572;SDS011;47465;43.094;12.434;2022-11-15T15:33:01;18.52;;;11.13;;
61572;SDS011;47465;43.094;12.434;2022-11-15T15:35:28;18.45;;;11.10;;
61572;SDS011;47465;43.094;12.434;2022-11-15T15:37:57;34.53;;;10.43;;
61572;SDS011;47465;43.094;12.434;2022-11-15T15:40:24;25.55;;;17.08;;
61572;SDS011;47465;43.094;12.434;2022-11-15T15:42:53;18.00;;;9.80;;
61572;SDS011;47465;43.094;12.434;2022-11-15T15:45:31;22.42;;;12.07;;
61572;SDS011;47465;43.094;12.434;2022-11-15T15:48:12;17.73;;;11.25;;
61572;SDS011;47465;43.094;12.434;2022-11-15T15:53:28;22.05;;;12.27;;
61572;SDS011;47465;43.094;12.434;2022-11-15T15:56:10;15.70;;;9.02;;
61572;SDS011;47465;43.094;12.434;2022-11-15T15:59:35;20.58;;;11.30;;
61572;SDS011;47465;43.094;12.434;2022-11-15T16:02:02;19.88;;;9.50;;
61572;SDS011;47465;43.094;12.434;2022-11-15T16:11:01;27.98;;;14.63;;
61572;SDS011;47465;43.094;12.434;2022-11-15T16:13:36;24.20;;;10.10;;
61572;SDS011;47465;43.094;12.434;2022-11-15T16:16:07;17.55;;;9.68;;
61572;SDS011;47465;43.094;12.434;2022-11-15T16:18:38;15.35;;;9.70;;
61572;SDS011;47465;43.094;12.434;2022-11-15T16:21:24;17.58;;;9.07;;
61572;SDS011;47465;43.094;12.434;2022-11-15T16:24:18;16.48;;;9.20;;
61572;SDS011;47465;43.094;12.434;2022-11-15T16:26:53;16.90;;;10.10;;
61572;SDS011;47465;43.094;12.434;2022-11-15T16:29:19;16.48;;;9.20;;
61572;SDS011;47465;43.094;12.434;2022-11-15T16:31:46;17.10;;;10.13;;